createdAt,value
2023-04-24T00:02:03.377Z,13.17
2023-04-24T00:04:36.981Z,12.20
2023-04-24T00:07:10.170Z,11.93
2023-04-24T00:09:43.710Z,13.32
2023-04-24T00:12:17.742Z,13.25
2023-04-24T00:14:52.774Z,15.57
2023-04-24T00:17:25.170Z,12.03
2023-04-24T00:19:59.730Z,12.33
2023-04-24T00:22:34.307Z,12.13
2023-04-24T00:25:08.526Z,11.03
2023-04-24T00:27:41.169Z,14.47
2023-04-24T00:30:15.667Z,11.80
2023-04-24T00:32:48.940Z,14.23
2023-04-24T00:35:22.726Z,11.23
2023-04-24T00:37:56.369Z,12.53
2023-04-24T00:40:29.253Z,13.25
2023-04-24T00:43:01.807Z,13.07
2023-04-24T00:45:34.512Z,11.47
2023-04-24T00:48:06.929Z,12.17
2023-04-24T00:50:42.712Z,16.00
2023-04-24T00:53:18.911Z,14.80
2023-04-24T00:55:52.053Z,13.27
2023-04-24T00:58:25.288Z,13.43
2023-04-24T01:00:58.775Z,13.97
2023-04-24T01:03:34.006Z,13.03
2023-04-24T01:06:09.103Z,13.40
2023-04-24T01:08:44.102Z,15.00
2023-04-24T01:11:17.887Z,14.20
2023-04-24T01:13:51.830Z,10.47
2023-04-24T01:16:24.815Z,18.03
2023-04-24T01:18:57.743Z,16.00
2023-04-24T01:21:32.944Z,13.77
2023-04-24T01:24:07.778Z,15.20
2023-04-24T01:26:40.570Z,14.43
2023-04-24T01:29:15.614Z,18.00
2023-04-24T01:31:51.246Z,13.70
2023-04-24T01:34:23.960Z,16.07
2023-04-24T01:36:57.640Z,12.90
2023-04-24T01:39:30.296Z,14.93
2023-04-24T01:42:03.960Z,12.90
2023-04-24T01:44:37.618Z,14.65
2023-04-24T01:47:10.716Z,19.05
2023-04-24T01:49:43.714Z,15.17
2023-04-24T01:52:20.682Z,17.50
2023-04-24T01:54:57.053Z,13.30
2023-04-24T01:57:31.823Z,15.23
2023-04-24T02:00:08.678Z,14.00
2023-04-24T02:02:48.616Z,15.30
2023-04-24T02:05:23.562Z,16.80
2023-04-24T02:07:57.270Z,16.67
2023-04-24T02:10:29.911Z,13.60
2023-04-24T02:13:06.099Z,14.90
2023-04-24T02:15:38.710Z,12.28
2023-04-24T02:18:11.470Z,15.33
2023-04-24T02:20:45.666Z,14.73
2023-04-24T02:23:19.588Z,14.43
2023-04-24T02:25:54.420Z,13.67
2023-04-24T02:28:26.776Z,14.20
2023-04-24T02:31:01.672Z,13.38
2023-04-24T02:33:34.433Z,17.73
2023-04-24T02:36:09.230Z,14.43
2023-04-24T02:38:41.862Z,16.05
2023-04-24T02:43:49.843Z,13.80
2023-04-24T02:46:22.183Z,14.15
2023-04-24T02:48:57.280Z,14.53
2023-04-24T02:51:30.284Z,14.60
2023-04-24T02:54:03.129Z,13.57
2023-04-24T02:56:37.492Z,16.17
2023-04-24T02:59:11.710Z,12.60
2023-04-24T03:01:45.520Z,15.93
2023-04-24T03:04:21.628Z,12.17
2023-04-24T03:06:56.053Z,15.53
2023-04-24T03:09:28.723Z,16.20
2023-04-24T03:12:02.796Z,17.83
2023-04-24T03:14:37.128Z,16.30
2023-04-24T03:17:10.022Z,17.07
2023-04-24T03:19:43.817Z,17.57
2023-04-24T03:22:17.228Z,13.80
2023-04-24T03:24:49.796Z,14.90
2023-04-24T03:27:25.351Z,14.20
2023-04-24T03:30:03.645Z,14.93
2023-04-24T03:32:47.335Z,17.17
2023-04-24T03:35:23.234Z,15.23
2023-04-24T03:37:56.325Z,14.87
2023-04-24T03:40:48.031Z,16.30
2023-04-24T03:43:45.822Z,15.23
2023-04-24T03:46:34.778Z,15.70
2023-04-24T03:49:09.005Z,14.73
2023-04-24T03:51:47.812Z,15.70
2023-04-24T03:54:24.135Z,17.17
2023-04-24T03:56:57.625Z,17.80
2023-04-24T03:59:34.398Z,15.13
2023-04-24T04:02:27.867Z,13.87
2023-04-24T04:05:00.654Z,16.20
2023-04-24T04:07:37.327Z,18.20
2023-04-24T04:10:11.599Z,16.70
2023-04-24T04:12:46.572Z,14.50
2023-04-24T04:15:19.210Z,18.03
2023-04-24T04:17:51.777Z,13.57
2023-04-24T04:20:25.395Z,13.27
2023-04-24T04:22:58.077Z,14.83
2023-04-24T04:25:41.491Z,15.80
2023-04-24T04:28:23.927Z,16.33
2023-04-24T04:30:56.935Z,12.97
2023-04-24T04:33:29.941Z,14.53
2023-04-24T04:36:06.921Z,20.97
2023-04-24T04:38:43.061Z,11.37
2023-04-24T04:41:27.503Z,13.27
2023-04-24T04:44:00.560Z,10.73
2023-04-24T04:46:35.545Z,16.60
2023-04-24T04:49:18.174Z,12.77
2023-04-24T04:51:53.764Z,12.90
2023-04-24T04:54:26.826Z,12.00
2023-04-24T04:57:00.064Z,12.50
2023-04-24T04:59:32.718Z,14.47
2023-04-24T05:02:14.309Z,16.83
2023-04-24T05:04:47.478Z,11.43
2023-04-24T05:07:20.953Z,11.67
2023-04-24T05:09:58.247Z,10.03
2023-04-24T05:12:30.995Z,13.35
2023-04-24T05:15:04.289Z,11.33
2023-04-24T05:17:37.140Z,11.38
2023-04-24T05:20:11.677Z,14.07
2023-04-24T05:22:45.967Z,9.27
2023-04-24T05:25:19.933Z,9.23
2023-04-24T05:27:58.765Z,15.73
2023-04-24T05:30:31.571Z,11.75
2023-04-24T05:33:04.807Z,10.03
2023-04-24T05:35:47.252Z,12.70
2023-04-24T05:38:20.878Z,14.73
2023-04-24T05:40:54.873Z,10.57
2023-04-24T05:43:27.725Z,15.50
2023-04-24T05:46:01.699Z,14.53
2023-04-24T05:48:34.354Z,15.53
2023-04-24T05:51:09.005Z,16.97
2023-04-24T05:53:41.450Z,12.60
2023-04-24T05:56:15.045Z,13.90
2023-04-24T05:58:47.786Z,14.45
2023-04-24T06:03:58.602Z,16.23
2023-04-24T06:06:36.980Z,12.93
2023-04-24T06:09:09.922Z,18.30
2023-04-24T06:11:42.930Z,13.37
2023-04-24T06:14:16.577Z,14.37
2023-04-24T06:17:11.482Z,12.53
2023-04-24T06:19:51.250Z,14.53
2023-04-24T06:22:25.186Z,14.33
2023-04-24T06:24:59.449Z,14.87
2023-04-24T06:27:34.444Z,15.67
2023-04-24T06:30:09.623Z,15.87
2023-04-24T06:32:43.258Z,10.93
2023-04-24T06:35:15.636Z,14.57
2023-04-24T06:37:49.144Z,14.03
2023-04-24T06:40:21.981Z,15.35
2023-04-24T06:42:54.255Z,16.90
2023-04-24T06:45:26.461Z,13.47
2023-04-24T06:47:59.496Z,16.77
2023-04-24T06:50:31.884Z,12.73
2023-04-24T06:53:04.320Z,18.83
2023-04-24T06:55:37.906Z,14.70
2023-04-24T07:00:41.889Z,15.90
2023-04-24T07:03:17.338Z,10.63
2023-04-24T07:05:54.578Z,15.90
2023-04-24T07:08:27.619Z,15.17
2023-04-24T07:10:59.892Z,15.80
2023-04-24T07:13:32.255Z,14.30
2023-04-24T07:16:05.193Z,14.97
2023-04-24T07:18:39.686Z,14.35
2023-04-24T07:21:12.510Z,18.43
2023-04-24T07:23:45.290Z,15.10
2023-04-24T07:26:18.206Z,15.87
2023-04-24T07:28:50.875Z,11.63
2023-04-24T07:31:23.405Z,13.13
2023-04-24T07:33:59.279Z,11.60
2023-04-24T07:36:34.547Z,15.00
2023-04-24T07:39:08.495Z,13.77
2023-04-24T07:41:43.632Z,12.98
2023-04-24T07:44:16.798Z,18.53
2023-04-24T07:46:53.666Z,16.37
2023-04-24T07:49:26.340Z,13.03
2023-04-24T07:51:58.816Z,17.93
2023-04-24T07:54:31.433Z,13.50
2023-04-24T07:57:04.013Z,11.63
2023-04-24T07:59:36.505Z,11.57
2023-04-24T08:02:09.078Z,12.93
2023-04-24T08:04:41.984Z,11.90
2023-04-24T08:07:18.197Z,18.47
2023-04-24T08:12:25.824Z,12.17
2023-04-24T08:14:58.284Z,14.40
2023-04-24T08:17:31.960Z,10.83
2023-04-24T08:20:06.406Z,13.03
2023-04-24T08:22:38.988Z,15.37
2023-04-24T08:25:13.404Z,14.37
2023-04-24T08:27:46.566Z,13.47
2023-04-24T08:30:19.646Z,13.22
2023-04-24T08:32:53.357Z,19.27
2023-04-24T08:35:26.130Z,10.57
2023-04-24T08:37:58.442Z,12.70
2023-04-24T08:40:36.511Z,12.00
2023-04-24T08:43:09.442Z,10.17
2023-04-24T08:45:42.690Z,13.17
2023-04-24T08:48:27.726Z,13.40
2023-04-24T08:51:05.405Z,12.73
2023-04-24T08:53:38.519Z,18.83
2023-04-24T08:56:11.749Z,9.65
2023-04-24T08:58:47.371Z,10.35
2023-04-24T09:01:21.239Z,14.90
2023-04-24T09:03:59.243Z,11.93
2023-04-24T09:06:36.154Z,10.67
2023-04-24T09:09:08.766Z,14.53
2023-04-24T09:11:42.285Z,15.67
2023-04-24T09:14:16.986Z,14.43
2023-04-24T09:21:56.947Z,12.57
2023-04-24T09:27:03.844Z,9.23
2023-04-24T09:29:36.352Z,10.50
2023-04-24T09:32:26.228Z,8.93
2023-04-24T09:35:13.519Z,10.07
2023-04-24T09:37:48.089Z,11.47
2023-04-24T09:40:22.516Z,10.60
2023-04-24T09:42:59.113Z,9.80
2023-04-24T09:45:39.375Z,6.73
2023-04-24T09:48:14.345Z,10.83
2023-04-24T09:50:50.991Z,10.67
2023-04-24T09:53:28.602Z,8.73
2023-04-24T09:56:09.382Z,9.87
2023-04-24T09:58:43.057Z,11.23
2023-04-24T10:01:17.718Z,8.40
2023-04-24T10:03:52.990Z,9.70
2023-04-24T10:06:33.070Z,12.07
2023-04-24T10:09:06.644Z,8.37
2023-04-24T10:11:43.808Z,8.73
2023-04-24T10:14:19.208Z,7.70
2023-04-24T10:16:55.234Z,8.40
2023-04-24T10:19:29.454Z,9.83
2023-04-24T10:22:03.009Z,10.40
2023-04-24T10:24:37.328Z,8.27
2023-04-24T10:27:10.514Z,6.70
2023-04-24T10:32:14.904Z,6.47
2023-04-24T10:34:47.598Z,10.67
2023-04-24T10:39:56.050Z,8.17
2023-04-24T10:42:32.051Z,8.57
2023-04-24T10:45:11.637Z,6.27
2023-04-24T10:48:04.340Z,9.67
2023-04-24T10:50:50.705Z,7.60
2023-04-24T10:53:25.424Z,8.80
2023-04-24T10:56:05.036Z,6.40
2023-04-24T10:58:46.158Z,14.80
2023-04-24T11:01:30.494Z,6.90
2023-04-24T11:04:06.097Z,7.90
2023-04-24T11:06:39.860Z,6.93
2023-04-24T11:09:14.257Z,8.73
2023-04-24T11:11:51.151Z,8.37
2023-04-24T11:14:23.569Z,10.40
2023-04-24T11:16:57.500Z,6.97
2023-04-24T11:19:32.287Z,9.10
2023-04-24T11:22:06.995Z,6.93
2023-04-24T11:24:52.166Z,7.53
2023-04-24T11:27:32.160Z,6.60
2023-04-24T11:30:06.133Z,7.33
2023-04-24T11:32:41.546Z,10.00
2023-04-24T11:35:18.045Z,9.50
2023-04-24T11:38:13.084Z,6.53
2023-04-24T11:40:47.236Z,11.57
2023-04-24T11:43:21.359Z,10.33
2023-04-24T11:45:55.404Z,9.43
2023-04-24T11:48:28.257Z,9.13
2023-04-24T11:51:04.063Z,8.35
2023-04-24T11:53:38.565Z,7.07
2023-04-24T11:56:12.605Z,10.10
2023-04-24T11:58:45.950Z,7.47
2023-04-24T12:01:18.304Z,12.30
2023-04-24T12:04:02.237Z,7.00
2023-04-24T12:06:35.248Z,9.73
2023-04-24T12:09:17.775Z,8.85
2023-04-24T12:11:59.286Z,9.75
2023-04-24T12:14:31.738Z,10.43
2023-04-24T12:17:07.000Z,8.37
2023-04-24T12:19:47.965Z,9.83
2023-04-24T12:22:21.037Z,11.13
2023-04-24T12:25:04.312Z,9.98
2023-04-24T12:27:37.088Z,8.05
2023-04-24T12:30:15.371Z,7.87
2023-04-24T12:32:51.564Z,9.20
2023-04-24T12:35:28.792Z,10.87
2023-04-24T12:38:10.243Z,50.73
2023-04-24T12:40:44.228Z,41.93
2023-04-24T12:43:20.566Z,30.03
2023-04-24T12:45:53.528Z,56.40
2023-04-24T12:48:26.993Z,21.07
2023-04-24T12:51:02.834Z,25.17
2023-04-24T12:53:35.501Z,28.60
2023-04-24T12:56:10.425Z,19.43
2023-04-24T12:58:44.695Z,36.27
2023-04-24T13:01:17.096Z,16.50
2023-04-24T13:03:50.475Z,19.10
2023-04-24T13:06:27.711Z,25.05
2023-04-24T13:09:00.419Z,9.53
2023-04-24T13:11:32.987Z,6.23
2023-04-24T13:14:05.365Z,13.97
2023-04-24T13:16:47.686Z,11.93
2023-04-24T13:19:20.326Z,8.73
2023-04-24T13:21:53.463Z,11.37
2023-04-24T13:24:27.223Z,5.92
2023-04-24T13:27:00.298Z,5.40
2023-04-24T13:29:33.922Z,7.70
2023-04-24T13:32:07.017Z,10.40
2023-04-24T13:34:40.320Z,8.65
2023-04-24T13:37:18.427Z,6.63
2023-04-24T13:39:58.789Z,5.03
2023-04-24T13:42:31.686Z,5.63
2023-04-24T13:45:21.338Z,4.33
2023-04-24T13:48:04.298Z,9.57
2023-04-24T13:50:36.669Z,6.53
2023-04-24T13:53:09.407Z,4.60
2023-04-24T13:55:41.880Z,7.17
2023-04-24T13:58:16.211Z,5.30
2023-04-24T14:00:51.969Z,4.63
2023-04-24T14:03:25.190Z,7.00
2023-04-24T14:05:58.792Z,8.43
2023-04-24T14:08:31.261Z,6.15
2023-04-24T14:11:04.629Z,4.97
2023-04-24T14:13:38.073Z,9.38
2023-04-24T14:16:11.134Z,5.35
2023-04-24T14:18:46.198Z,5.33
2023-04-24T14:21:18.618Z,9.77
2023-04-24T14:23:51.688Z,8.27
2023-04-24T14:26:25.831Z,5.03
2023-04-24T14:29:11.642Z,8.57
2023-04-24T14:31:49.892Z,5.50
2023-04-24T14:34:22.738Z,9.60
2023-04-24T14:36:58.684Z,11.80
2023-04-24T14:39:31.395Z,4.27
2023-04-24T14:42:04.027Z,5.43
2023-04-24T14:44:42.768Z,5.63
2023-04-24T14:47:16.236Z,5.47
2023-04-24T14:49:51.552Z,5.83
2023-04-24T14:52:23.899Z,4.40
2023-04-24T14:54:56.374Z,5.17
2023-04-24T14:57:29.247Z,5.80
2023-04-24T15:00:02.162Z,4.80
2023-04-24T15:02:35.150Z,6.72
2023-04-24T15:05:10.208Z,6.37
2023-04-24T15:07:43.751Z,7.80
2023-04-24T15:10:18.917Z,6.97
2023-04-24T15:15:22.553Z,6.10
2023-04-24T15:17:56.438Z,5.33
2023-04-24T15:20:29.226Z,7.10
2023-04-24T15:23:03.439Z,6.10
2023-04-24T15:25:39.157Z,4.80
2023-04-24T15:28:11.780Z,6.30
2023-04-24T15:30:45.957Z,5.23
2023-04-24T15:33:19.159Z,4.70
2023-04-24T15:35:52.512Z,6.07
2023-04-24T15:38:25.173Z,4.92
2023-04-24T15:40:57.623Z,7.70
2023-04-24T15:43:35.448Z,7.40
2023-04-24T15:46:11.374Z,7.95
2023-04-24T15:48:46.107Z,4.13
2023-04-24T15:51:18.461Z,5.17
2023-04-24T15:53:51.444Z,6.10
2023-04-24T15:56:24.606Z,4.95
2023-04-24T15:58:57.059Z,5.65
2023-04-24T16:01:29.703Z,5.80
2023-04-24T16:04:02.488Z,5.13
2023-04-24T16:06:35.148Z,6.60
2023-04-24T16:09:08.826Z,5.42
2023-04-24T16:11:41.763Z,8.25
2023-04-24T16:14:14.139Z,6.57
2023-04-24T16:16:49.426Z,5.37
2023-04-24T16:19:21.914Z,7.40
2023-04-24T16:21:56.670Z,8.37
2023-04-24T16:24:29.598Z,8.60
2023-04-24T16:27:04.635Z,7.27
2023-04-24T16:29:37.200Z,6.07
2023-04-24T16:32:10.588Z,6.93
2023-04-24T16:34:43.345Z,6.30
2023-04-24T16:37:16.611Z,6.43
2023-04-24T16:39:55.299Z,7.53
2023-04-24T16:42:33.573Z,7.40
2023-04-24T16:45:08.642Z,5.50
2023-04-24T16:47:43.721Z,7.37
2023-04-24T16:50:16.875Z,7.58
2023-04-24T16:52:54.099Z,8.13
2023-04-24T16:55:27.810Z,12.00
2023-04-24T17:00:31.647Z,19.00
2023-04-24T17:03:06.783Z,13.73
2023-04-24T17:05:39.625Z,17.97
2023-04-24T17:08:12.676Z,21.87
2023-04-24T17:10:46.313Z,17.47
2023-04-24T17:13:18.962Z,21.25
2023-04-24T17:15:51.315Z,13.07
2023-04-24T17:18:24.848Z,14.23
2023-04-24T17:20:57.215Z,10.95
2023-04-24T17:23:29.686Z,15.23
2023-04-24T17:26:02.321Z,10.60
2023-04-24T17:28:36.654Z,12.53
2023-04-24T17:31:10.084Z,14.20
2023-04-24T17:33:42.542Z,25.48
2023-04-24T17:36:14.978Z,11.83
2023-04-24T17:38:48.461Z,15.03
2023-04-24T17:41:21.837Z,26.02
2023-04-24T17:43:54.461Z,21.27
2023-04-24T17:46:27.467Z,22.87
2023-04-24T17:49:00.296Z,18.23
2023-04-24T17:51:33.003Z,20.57
2023-04-24T17:54:05.622Z,24.40
2023-04-24T17:56:38.529Z,16.03
2023-04-24T17:59:12.360Z,14.77
2023-04-24T18:01:47.959Z,19.00
2023-04-24T18:04:20.735Z,17.47
2023-04-24T18:06:53.498Z,20.70
2023-04-24T18:09:26.307Z,36.43
2023-04-24T18:11:58.646Z,33.53
2023-04-24T18:14:31.677Z,41.57
2023-04-24T18:17:05.489Z,50.57
2023-04-24T18:19:38.769Z,50.43
2023-04-24T18:22:13.622Z,72.30
2023-04-24T18:24:50.612Z,67.55
2023-04-24T18:27:29.412Z,106.27
2023-04-24T18:30:03.776Z,106.20
2023-04-24T18:32:36.409Z,104.40
2023-04-24T18:35:10.957Z,107.50
2023-04-24T18:37:43.439Z,116.93
2023-04-24T18:40:18.685Z,126.07
2023-04-24T18:42:51.661Z,119.07
2023-04-24T18:45:24.411Z,101.90
2023-04-24T18:47:57.211Z,87.43
2023-04-24T18:50:32.000Z,70.63
2023-04-24T18:53:04.529Z,80.00
2023-04-24T18:55:37.504Z,40.63
2023-04-24T18:58:12.685Z,30.03
2023-04-24T19:00:48.064Z,32.30
2023-04-24T19:03:20.995Z,20.77
2023-04-24T19:05:54.283Z,14.83
2023-04-24T19:08:26.610Z,14.50
2023-04-24T19:10:59.063Z,13.43
2023-04-24T19:13:31.556Z,10.47
2023-04-24T19:16:04.823Z,10.20
2023-04-24T19:18:38.178Z,13.53
2023-04-24T19:21:10.988Z,13.47
2023-04-24T19:23:46.648Z,13.50
2023-04-24T19:26:19.229Z,16.07
2023-04-24T19:28:53.781Z,16.33
2023-04-24T19:31:28.888Z,9.23
2023-04-24T19:34:06.568Z,7.97
2023-04-24T19:36:43.957Z,14.57
2023-04-24T19:39:17.196Z,11.07
2023-04-24T19:41:51.162Z,12.13
2023-04-24T19:44:23.894Z,9.10
2023-04-24T19:46:56.281Z,8.17
2023-04-24T19:49:29.220Z,9.60
2023-04-24T19:52:02.184Z,8.70
2023-04-24T19:54:36.755Z,19.98
2023-04-24T19:57:11.553Z,13.80
2023-04-24T19:59:44.182Z,10.60
2023-04-24T20:04:51.089Z,12.00
2023-04-24T20:07:24.270Z,11.20
2023-04-24T20:09:58.124Z,11.03
2023-04-24T20:12:36.376Z,13.13
2023-04-24T20:15:12.111Z,11.60
2023-04-24T20:17:48.122Z,8.70
2023-04-24T20:20:20.770Z,9.67
2023-04-24T20:22:53.482Z,12.83
2023-04-24T20:25:26.220Z,11.97
2023-04-24T20:27:58.862Z,10.97
2023-04-24T20:30:32.729Z,11.93
2023-04-24T20:33:05.584Z,12.58
2023-04-24T20:35:38.275Z,13.07
2023-04-24T20:38:11.725Z,13.90
2023-04-24T20:40:57.279Z,11.50
2023-04-24T20:43:31.155Z,12.60
2023-04-24T20:46:04.037Z,11.97
2023-04-24T20:48:36.705Z,11.73
2023-04-24T20:51:09.330Z,12.90
2023-04-24T20:53:49.754Z,11.73
2023-04-24T20:56:24.945Z,13.77
2023-04-24T20:58:59.155Z,14.07
2023-04-24T21:04:05.994Z,10.80
2023-04-24T21:06:38.553Z,13.37
2023-04-24T21:09:12.635Z,15.37
2023-04-24T21:11:46.517Z,14.07
2023-04-24T21:14:22.052Z,11.43
2023-04-24T21:16:56.722Z,15.43
2023-04-24T21:19:29.851Z,11.23
2023-04-24T21:22:02.425Z,13.23
2023-04-24T21:24:34.952Z,12.43
2023-04-24T21:27:08.117Z,10.17
2023-04-24T21:29:40.686Z,9.47
2023-04-24T21:32:19.369Z,11.40
2023-04-24T21:34:52.199Z,12.40
2023-04-24T21:37:24.541Z,13.03
2023-04-24T21:39:57.267Z,11.27
2023-04-24T21:42:32.495Z,12.53
2023-04-24T21:45:05.892Z,12.53
2023-04-24T21:47:38.629Z,13.93
2023-04-24T21:50:15.377Z,13.93
2023-04-24T21:52:49.103Z,12.93
2023-04-24T21:55:23.710Z,10.17
2023-04-24T21:57:56.178Z,14.00
2023-04-24T22:00:29.439Z,13.50
2023-04-24T22:03:01.945Z,14.90
2023-04-24T22:05:35.632Z,12.07
2023-04-24T22:08:08.228Z,12.35
2023-04-24T22:10:47.296Z,12.93
2023-04-24T22:13:19.760Z,16.50
2023-04-24T22:15:55.113Z,9.87
2023-04-24T22:18:36.570Z,11.30
2023-04-24T22:21:17.947Z,12.53
2023-04-24T22:23:50.857Z,11.83
2023-04-24T22:26:24.313Z,11.07
2023-04-24T22:28:56.780Z,14.37
2023-04-24T22:31:29.610Z,14.53
2023-04-24T22:34:04.069Z,15.35
2023-04-24T22:36:37.333Z,13.80
2023-04-24T22:39:10.858Z,18.03
2023-04-24T22:41:44.490Z,14.75
2023-04-24T22:44:21.873Z,11.83
2023-04-24T22:46:54.464Z,15.10
2023-04-24T22:49:28.456Z,15.40
2023-04-24T22:54:35.420Z,12.50
2023-04-24T22:57:08.368Z,15.83
2023-04-24T22:59:41.039Z,12.27
2023-04-24T23:02:16.177Z,15.03
2023-04-24T23:04:49.577Z,12.33
2023-04-24T23:07:22.512Z,13.23
2023-04-24T23:09:56.184Z,13.57
2023-04-24T23:12:32.977Z,13.72
2023-04-24T23:15:09.244Z,11.70
2023-04-24T23:17:42.623Z,17.13
2023-04-24T23:20:19.782Z,13.03
2023-04-24T23:22:53.820Z,13.50
2023-04-24T23:25:26.481Z,13.90
2023-04-24T23:27:58.988Z,16.20
2023-04-24T23:30:31.658Z,15.00
2023-04-24T23:33:04.549Z,14.30
2023-04-24T23:35:37.601Z,15.38
2023-04-24T23:38:12.592Z,18.17
2023-04-24T23:40:59.259Z,15.23
2023-04-24T23:43:31.920Z,13.77
2023-04-24T23:46:04.879Z,17.20
2023-04-24T23:48:37.859Z,15.37
2023-04-24T23:51:11.818Z,16.87
2023-04-24T23:53:44.730Z,13.53
2023-04-24T23:56:19.539Z,17.53
2023-04-24T23:58:52.692Z,14.30
